Time;durP1;ratioP1;P1;durP2;ratioP2;P2;SDS_P1;SDS_P2;PMS_P1;PMS_P2;Temp;Humidity;BMP_temperature;BMP_pressure;BME280_temperature;BME280_humidity;BME280_pressure;Samples;Min_cycle;Max_cycle;Signal;HPM_P1;HPM_P2
2024/04/23 00:01:06;;;;;;;3.73;3.50;;;;;;;;;;5390844;26;20230;-59
2024/04/23 00:03:33;;;;;;;3.13;3.03;;;;;;;;;;5405076;26;20272;-59
2024/04/23 00:06:02;;;;;;;3.90;3.60;;;;;;;;;;5399609;26;20269;-59
2024/04/23 00:08:28;;;;;;;3.60;3.30;;;;;;;;;;5390168;26;20229;-59
2024/04/23 00:10:59;;;;;;;4.30;3.90;;;;;;;;;;5404430;26;20229;-59
2024/04/23 00:13:26;;;;;;;4.23;3.93;;;;;;;;;;5395428;26;20744;-59
2024/04/23 00:15:54;;;;;;;4.07;3.77;;;;;;;;;;5385163;26;20311;-59
2024/04/23 00:18:21;;;;;;;2.73;2.63;;;;;;;;;;5371472;26;20789;-59
2024/04/23 00:20:50;;;;;;;3.83;3.53;;;;;;;;;;5405108;26;20689;-59
2024/04/23 00:23:16;;;;;;;3.83;3.43;;;;;;;;;;5373687;26;20238;-59
2024/04/23 00:25:45;;;;;;;4.37;3.97;;;;;;;;;;5370437;26;20273;-59
2024/04/23 00:28:14;;;;;;;4.07;3.87;;;;;;;;;;5370235;26;20273;-59
2024/04/23 00:30:43;;;;;;;3.50;3.30;;;;;;;;;;5382628;26;20237;-59
2024/04/23 00:33:09;;;;;;;4.20;3.90;;;;;;;;;;5390824;26;20239;-59
2024/04/23 00:35:38;;;;;;;3.93;3.53;;;;;;;;;;5405555;26;20271;-59
2024/04/23 00:38:05;;;;;;;3.63;3.37;;;;;;;;;;5405289;26;20225;-59
2024/04/23 00:40:34;;;;;;;4.07;3.80;;;;;;;;;;5403526;26;20238;-59
2024/04/23 00:43:00;;;;;;;4.53;4.23;;;;;;;;;;5404479;26;20229;-59
2024/04/23 00:45:34;;;;;;;3.77;3.53;;;;;;;;;;5369371;26;20234;-59
2024/04/23 00:48:04;;;;;;;3.93;3.57;;;;;;;;;;5395311;26;20232;-59
2024/04/23 00:50:34;;;;;;;4.37;3.97;;;;;;;;;;5403348;26;20250;-59
2024/04/23 00:53:00;;;;;;;4.80;4.43;;;;;;;;;;5404008;26;20229;-59
2024/04/23 00:55:29;;;;;;;4.40;4.00;;;;;;;;;;5403716;26;20242;-59
2024/04/23 00:57:56;;;;;;;4.30;3.93;;;;;;;;;;5378017;26;20578;-59
2024/04/23 01:00:25;;;;;;;4.40;4.00;;;;;;;;;;5369552;26;20222;-59
2024/04/23 01:02:54;;;;;;;4.53;4.23;;;;;;;;;;5373046;26;20759;-59
2024/04/23 01:05:23;;;;;;;5.30;4.73;;;;;;;;;;5402664;26;20724;-58
2024/04/23 01:07:49;;;;;;;4.73;4.33;;;;;;;;;;5401609;26;20229;-59
2024/04/23 01:10:18;;;;;;;5.37;4.93;;;;;;;;;;5386666;26;20245;-59
2024/04/23 01:12:44;;;;;;;4.97;4.53;;;;;;;;;;5404074;26;20745;-59
2024/04/23 01:15:14;;;;;;;5.50;4.90;;;;;;;;;;5404877;26;20226;-59
2024/04/23 01:17:41;;;;;;;5.20;4.70;;;;;;;;;;5395137;26;20231;-59
2024/04/23 01:20:15;;;;;;;5.03;4.63;;;;;;;;;;5398112;26;20298;-59
2024/04/23 01:22:44;;;;;;;5.07;4.67;;;;;;;;;;5404674;26;20221;-59
2024/04/23 01:25:15;;;;;;;5.80;5.40;;;;;;;;;;5404595;26;20221;-59
2024/04/23 01:27:45;;;;;;;5.63;5.07;;;;;;;;;;5405818;26;20260;-59
2024/04/23 01:30:14;;;;;;;4.80;4.50;;;;;;;;;;5384590;26;20338;-59
2024/04/23 01:32:42;;;;;;;5.30;4.80;;;;;;;;;;5404433;26;20217;-59
2024/04/23 01:35:12;;;;;;;5.83;5.43;;;;;;;;;;5404482;26;20221;-59
2024/04/23 01:37:39;;;;;;;6.13;5.63;;;;;;;;;;5428978;21;20230;-59
2024/04/23 01:40:09;;;;;;;5.67;5.27;;;;;;;;;;5364851;26;20638;-57
2024/04/23 01:42:36;;;;;;;6.23;5.63;;;;;;;;;;5366853;26;20266;-58
2024/04/23 01:45:11;;;;;;;5.63;5.30;;;;;;;;;;5368037;26;20712;-58
2024/04/23 01:47:38;;;;;;;5.40;5.10;;;;;;;;;;5367177;26;20234;-58
2024/04/23 01:50:07;;;;;;;6.60;6.07;;;;;;;;;;5385597;26;20767;-58
2024/04/23 01:52:33;;;;;;;6.00;5.50;;;;;;;;;;5365015;26;20262;-58
2024/04/23 01:55:02;;;;;;;5.43;5.03;;;;;;;;;;5379526;26;20328;-58
2024/04/23 01:57:29;;;;;;;6.03;5.63;;;;;;;;;;5367355;26;20231;-58
2024/04/23 02:00:00;;;;;;;6.87;5.87;;;;;;;;;;5366692;26;20266;-58
2024/04/23 02:02:29;;;;;;;6.70;6.00;;;;;;;;;;5385638;26;20313;-58
2024/04/23 02:04:58;;;;;;;6.20;5.63;;;;;;;;;;5375194;26;20235;-58
2024/04/23 02:07:25;;;;;;;7.20;6.60;;;;;;;;;;5369142;26;20788;-59
2024/04/23 02:09:54;;;;;;;5.73;5.30;;;;;;;;;;5373035;26;22077;-58
2024/04/23 02:12:22;;;;;;;8.17;5.77;;;;;;;;;;5405975;26;20225;-58
2024/04/23 02:14:51;;;;;;;7.60;6.90;;;;;;;;;;5406154;26;20326;-58
2024/04/23 02:17:17;;;;;;;10.07;7.90;;;;;;;;;;5405842;26;20589;-58
2024/04/23 02:19:49;;;;;;;6.53;6.03;;;;;;;;;;5370346;26;20432;-58
2024/04/23 02:22:17;;;;;;;6.13;5.63;;;;;;;;;;5370503;26;20235;-58
2024/04/23 02:24:46;;;;;;;6.03;5.73;;;;;;;;;;5370366;26;20380;-57
2024/04/23 02:27:12;;;;;;;5.93;5.53;;;;;;;;;;5378152;26;20224;-58
2024/04/23 02:29:41;;;;;;;6.83;6.33;;;;;;;;;;5405147;26;20241;-58
2024/04/23 02:32:26;;;;;;;6.50;5.87;;;;;;;;;;5390730;26;20569;-58
2024/04/23 02:34:58;;;;;;;6.93;6.30;;;;;;;;;;5370542;26;20251;-59
2024/04/23 02:37:24;;;;;;;7.40;5.63;;;;;;;;;;5369722;26;20223;-58
2024/04/23 02:39:53;;;;;;;6.13;5.67;;;;;;;;;;5388477;26;20346;-59
2024/04/23 02:42:19;;;;;;;6.87;6.20;;;;;;;;;;5370344;26;20235;-58
2024/04/23 02:44:48;;;;;;;6.53;6.03;;;;;;;;;;5366100;26;20867;-58
2024/04/23 02:47:14;;;;;;;7.10;6.60;;;;;;;;;;5368952;26;20234;-58
2024/04/23 02:49:43;;;;;;;6.27;5.93;;;;;;;;;;5367976;26;20242;-58
2024/04/23 02:52:12;;;;;;;6.30;5.80;;;;;;;;;;5369852;26;20238;-58
2024/04/23 02:54:41;;;;;;;6.60;6.10;;;;;;;;;;5369854;26;20265;-60
2024/04/23 02:57:07;;;;;;;6.83;6.33;;;;;;;;;;5369075;26;20239;-58
2024/04/23 02:59:36;;;;;;;7.47;6.77;;;;;;;;;;5382865;26;20339;-58
2024/04/23 03:02:03;;;;;;;7.03;6.53;;;;;;;;;;5377306;26;20290;-58
2024/04/23 03:04:32;;;;;;;6.93;6.33;;;;;;;;;;5383143;26;20318;-58
2024/04/23 03:06:58;;;;;;;6.53;5.93;;;;;;;;;;5405310;26;20689;-58
2024/04/23 03:09:30;;;;;;;8.07;7.37;;;;;;;;;;5370042;26;20356;-58
2024/04/23 03:11:56;;;;;;;6.80;6.30;;;;;;;;;;5369858;26;20230;-58
2024/04/23 03:14:25;;;;;;;6.93;6.53;;;;;;;;;;5364787;26;20313;-58
2024/04/23 03:16:52;;;;;;;7.20;6.53;;;;;;;;;;5362687;26;20278;-58
2024/04/23 03:19:22;;;;;;;6.77;6.30;;;;;;;;;;5368943;26;20285;-58
2024/04/23 03:21:49;;;;;;;7.67;7.07;;;;;;;;;;5375484;26;20297;-58
2024/04/23 03:24:18;;;;;;;7.43;6.73;;;;;;;;;;5369287;26;20242;-58
2024/04/23 03:26:47;;;;;;;7.13;6.53;;;;;;;;;;5369666;26;20256;-58
2024/04/23 03:29:17;;;;;;;6.70;6.20;;;;;;;;;;5368108;26;20331;-58
2024/04/23 03:31:43;;;;;;;7.17;6.57;;;;;;;;;;5361637;26;20279;-57
2024/04/23 03:34:12;;;;;;;7.10;6.53;;;;;;;;;;5365648;26;20230;-58
2024/04/23 03:36:39;;;;;;;7.37;6.77;;;;;;;;;;5359893;26;20793;-58
2024/04/23 03:39:09;;;;;;;6.93;6.40;;;;;;;;;;5367407;26;20398;-58
2024/04/23 03:41:38;;;;;;;6.73;6.23;;;;;;;;;;5367160;26;20238;-59
2024/04/23 03:44:09;;;;;;;7.00;6.50;;;;;;;;;;5369196;26;20745;-59
2024/04/23 03:46:38;;;;;;;7.10;6.60;;;;;;;;;;5369599;26;20231;-59
2024/04/23 03:49:07;;;;;;;6.77;6.17;;;;;;;;;;5356128;26;20338;-59
2024/04/23 03:51:33;;;;;;;8.10;7.30;;;;;;;;;;5363053;26;20235;-59
2024/04/23 03:54:02;;;;;;;6.90;6.30;;;;;;;;;;5366330;26;20235;-58
2024/04/23 03:56:28;;;;;;;7.87;7.17;;;;;;;;;;5367317;26;20283;-59
2024/04/23 03:58:57;;;;;;;7.70;7.00;;;;;;;;;;5366866;26;20239;-58
2024/04/23 04:01:26;;;;;;;6.90;6.40;;;;;;;;;;5367817;26;20590;-59
2024/04/23 04:06:40;;;;;;;6.53;6.03;;;;;;;;;;5343536;26;20294;-59
2024/04/23 04:09:10;;;;;;;6.33;5.83;;;;;;;;;;5386349;26;20761;-59
2024/04/23 04:11:39;;;;;;;7.53;7.03;;;;;;;;;;5351970;26;20403;-57
2024/04/23 04:14:08;;;;;;;7.60;7.00;;;;;;;;;;5363508;26;20282;-58
2024/04/23 04:16:39;;;;;;;9.03;8.23;;;;;;;;;;5368191;26;20235;-60
2024/04/23 04:19:06;;;;;;;9.07;8.13;;;;;;;;;;5367208;26;20800;-59
2024/04/23 04:21:34;;;;;;;8.60;7.90;;;;;;;;;;5367929;26;20297;-59
2024/04/23 04:24:01;;;;;;;7.50;6.90;;;;;;;;;;5368188;26;20268;-60
2024/04/23 04:26:30;;;;;;;7.97;7.33;;;;;;;;;;5368254;26;20234;-60
2024/04/23 04:28:56;;;;;;;8.30;7.53;;;;;;;;;;5368174;26;20288;-57
2024/04/23 04:31:25;;;;;;;8.03;7.30;;;;;;;;;;5354711;26;20278;-57
2024/04/23 04:33:54;;;;;;;8.10;7.40;;;;;;;;;;5365780;26;20810;-57
2024/04/23 04:36:23;;;;;;;8.50;7.37;;;;;;;;;;5385496;26;20237;-57
2024/04/23 04:38:49;;;;;;;8.07;7.27;;;;;;;;;;5351295;26;20302;-57
2024/04/23 04:41:18;;;;;;;9.83;8.23;;;;;;;;;;5353079;26;20828;-57
2024/04/23 04:43:44;;;;;;;8.27;7.53;;;;;;;;;;5346927;26;20239;-57
2024/04/23 04:46:13;;;;;;;8.37;7.57;;;;;;;;;;5351092;26;20234;-57
2024/04/23 04:48:39;;;;;;;8.60;7.80;;;;;;;;;;5350470;26;20238;-57
2024/04/23 04:51:12;;;;;;;8.40;7.60;;;;;;;;;;5360904;26;20231;-58
2024/04/23 04:53:38;;;;;;;9.67;8.67;;;;;;;;;;5379509;26;20687;-57
2024/04/23 04:56:07;;;;;;;8.83;8.00;;;;;;;;;;5364738;26;20751;-58
2024/04/23 04:58:33;;;;;;;8.93;8.03;;;;;;;;;;5332613;26;20325;-58
2024/04/23 05:01:04;;;;;;;9.10;8.20;;;;;;;;;;5355008;26;20272;-60
2024/04/23 05:03:30;;;;;;;8.43;7.53;;;;;;;;;;5366610;26;20254;-57
2024/04/23 05:05:59;;;;;;;7.90;7.20;;;;;;;;;;5359966;26;20238;-58
2024/04/23 05:08:28;;;;;;;8.80;8.00;;;;;;;;;;5345057;26;20236;-57
2024/04/23 05:10:57;;;;;;;8.30;7.43;;;;;;;;;;5364721;26;20273;-58
2024/04/23 05:13:23;;;;;;;7.87;7.07;;;;;;;;;;5352177;26;20243;-57
2024/04/23 05:15:52;;;;;;;9.40;8.60;;;;;;;;;;5356050;26;20270;-58
2024/04/23 05:18:18;;;;;;;8.77;7.97;;;;;;;;;;5370460;26;20230;-57
2024/04/23 05:20:47;;;;;;;9.43;8.57;;;;;;;;;;5365017;26;20238;-57
2024/04/23 05:23:13;;;;;;;8.37;7.57;;;;;;;;;;5358254;26;20301;-58
2024/04/23 05:25:44;;;;;;;8.07;7.40;;;;;;;;;;5366460;26;20670;-58
2024/04/23 05:28:11;;;;;;;8.67;7.87;;;;;;;;;;5364767;26;20293;-58
2024/04/23 05:33:24;;;;;;;10.53;8.47;;;;;;;;;;5368655;26;20613;-58
2024/04/23 05:35:53;;;;;;;7.83;7.27;;;;;;;;;;5359449;26;20617;-58
2024/04/23 05:38:22;;;;;;;8.37;7.67;;;;;;;;;;5368440;26;20285;-58
2024/04/23 05:40:54;;;;;;;9.93;8.93;;;;;;;;;;5362752;26;20576;-57
2024/04/23 05:43:23;;;;;;;8.57;7.77;;;;;;;;;;5370298;26;20852;-59
2024/04/23 05:45:52;;;;;;;8.93;8.03;;;;;;;;;;5360121;26;20281;-58
2024/04/23 05:48:36;;;;;;;12.17;7.87;;;;;;;;;;5368131;26;20277;-58
2024/04/23 05:51:23;;;;;;;8.77;7.97;;;;;;;;;;5363659;26;20227;-58
2024/04/23 05:54:11;;;;;;;9.97;8.73;;;;;;;;;;5343408;26;20257;-58
2024/04/23 05:56:40;;;;;;;9.17;7.47;;;;;;;;;;5349572;26;20239;-58
2024/04/23 05:59:08;;;;;;;8.93;8.03;;;;;;;;;;5357264;26;20236;-58
2024/04/23 06:01:35;;;;;;;7.80;7.10;;;;;;;;;;5371945;26;20788;-58
2024/04/23 06:04:04;;;;;;;8.97;7.07;;;;;;;;;;5359311;26;20290;-59
2024/04/23 06:06:30;;;;;;;7.93;7.23;;;;;;;;;;5336791;26;20236;-58
2024/04/23 06:08:59;;;;;;;8.23;7.03;;;;;;;;;;5335059;26;20296;-57
2024/04/23 06:11:25;;;;;;;7.80;7.10;;;;;;;;;;5358223;26;20239;-58
2024/04/23 06:14:02;;;;;;;6.53;5.93;;;;;;;;;;5353769;26;20269;-57
2024/04/23 06:16:29;;;;;;;7.00;6.40;;;;;;;;;;5354880;26;20231;-58
2024/04/23 06:18:58;;;;;;;7.63;6.87;;;;;;;;;;5335461;26;20284;-58
2024/04/23 06:21:24;;;;;;;7.13;6.53;;;;;;;;;;5335498;26;20284;-58
2024/04/23 06:23:53;;;;;;;6.20;5.70;;;;;;;;;;5336047;26;20278;-58
2024/04/23 06:26:20;;;;;;;6.60;5.90;;;;;;;;;;5335878;26;20233;-58
2024/04/23 06:28:48;;;;;;;5.90;5.50;;;;;;;;;;5345388;26;20236;-59
2024/04/23 06:31:17;;;;;;;6.87;6.37;;;;;;;;;;5361165;26;20230;-58
2024/04/23 06:33:46;;;;;;;5.77;5.20;;;;;;;;;;5367205;26;20278;-59
2024/04/23 06:36:13;;;;;;;7.83;5.37;;;;;;;;;;5361899;26;20268;-59
2024/04/23 06:38:41;;;;;;;6.50;6.00;;;;;;;;;;5366871;26;20255;-59
2024/04/23 06:41:09;;;;;;;6.30;5.83;;;;;;;;;;5369386;26;20277;-59
2024/04/23 06:43:37;;;;;;;6.97;5.83;;;;;;;;;;5369969;26;20234;-59
2024/04/23 06:46:04;;;;;;;5.83;5.43;;;;;;;;;;5370214;26;20226;-58
2024/04/23 06:48:35;;;;;;;6.77;6.20;;;;;;;;;;5366774;26;20640;-58
2024/04/23 06:51:03;;;;;;;8.23;7.63;;;;;;;;;;5357328;26;20276;-59
2024/04/23 06:53:34;;;;;;;6.47;5.97;;;;;;;;;;5368485;26;20239;-62
2024/04/23 06:56:00;;;;;;;6.77;6.27;;;;;;;;;;5370165;26;20269;-60
2024/04/23 06:58:29;;;;;;;7.00;6.10;;;;;;;;;;5366958;26;20238;-61
2024/04/23 07:00:58;;;;;;;5.97;5.40;;;;;;;;;;5361808;26;20296;-62
2024/04/23 07:03:26;;;;;;;5.60;5.20;;;;;;;;;;5369288;26;20722;-62
2024/04/23 07:05:55;;;;;;;6.17;5.67;;;;;;;;;;5362100;26;20230;-60
2024/04/23 07:08:24;;;;;;;7.70;6.10;;;;;;;;;;5360367;26;20306;-63
2024/04/23 07:10:55;;;;;;;6.53;5.90;;;;;;;;;;5369218;26;20293;-63
2024/04/23 07:13:23;;;;;;;6.30;5.80;;;;;;;;;;5366523;26;20327;-60
2024/04/23 07:15:50;;;;;;;6.47;5.93;;;;;;;;;;5358717;26;20554;-60
2024/04/23 07:18:19;;;;;;;7.03;6.33;;;;;;;;;;5369562;26;20329;-62
2024/04/23 07:20:45;;;;;;;7.00;6.50;;;;;;;;;;5367413;26;20227;-59
2024/04/23 07:23:16;;;;;;;5.67;5.03;;;;;;;;;;5363092;26;20231;-62
2024/04/23 07:25:51;;;;;;;6.63;6.13;;;;;;;;;;5356389;26;20230;-64
2024/04/23 07:28:18;;;;;;;6.30;5.90;;;;;;;;;;5367826;26;20247;-65
2024/04/23 07:30:47;;;;;;;6.60;6.10;;;;;;;;;;5340209;26;20607;-63
2024/04/23 07:33:13;;;;;;;6.40;6.00;;;;;;;;;;5382798;26;20243;-61
2024/04/23 07:35:43;;;;;;;6.93;6.37;;;;;;;;;;5387700;26;20394;-62
2024/04/23 07:38:09;;;;;;;6.30;5.83;;;;;;;;;;5368817;26;20278;-61
2024/04/23 07:40:40;;;;;;;6.93;6.33;;;;;;;;;;5442549;21;20315;-60
2024/04/23 07:43:10;;;;;;;6.53;5.93;;;;;;;;;;5433578;26;20234;-61
2024/04/23 07:45:39;;;;;;;6.93;6.23;;;;;;;;;;5421436;26;20277;-63
2024/04/23 07:48:10;;;;;;;6.53;5.93;;;;;;;;;;5428449;26;20271;-64
2024/04/23 07:50:39;;;;;;;5.97;5.57;;;;;;;;;;5426251;26;20343;-61
2024/04/23 07:53:05;;;;;;;6.40;5.80;;;;;;;;;;5425590;26;20638;-62
2024/04/23 07:55:34;;;;;;;5.40;4.90;;;;;;;;;;5430920;26;20238;-63
2024/04/23 07:58:03;;;;;;;6.17;5.57;;;;;;;;;;5446515;26;20298;-63
2024/04/23 08:00:32;;;;;;;6.27;5.77;;;;;;;;;;5406577;26;20290;-64
2024/04/23 08:02:59;;;;;;;6.47;5.97;;;;;;;;;;5405692;26;20234;-59
2024/04/23 08:05:28;;;;;;;7.10;6.50;;;;;;;;;;5422821;26;20282;-59
2024/04/23 08:07:54;;;;;;;7.23;6.53;;;;;;;;;;5414433;26;20368;-58
2024/04/23 08:10:23;;;;;;;7.30;6.70;;;;;;;;;;5405836;26;20237;-60
2024/04/23 08:12:52;;;;;;;6.70;6.00;;;;;;;;;;5411978;26;20267;-60
2024/04/23 08:15:24;;;;;;;6.03;5.53;;;;;;;;;;5410304;26;20273;-59
2024/04/23 08:17:50;;;;;;;5.20;4.80;;;;;;;;;;5403408;26;20271;-60
2024/04/23 08:20:19;;;;;;;5.93;5.53;;;;;;;;;;5404723;26;20253;-62
2024/04/23 08:22:48;;;;;;;6.93;6.27;;;;;;;;;;5404703;26;20581;-60
2024/04/23 08:25:17;;;;;;;7.10;6.47;;;;;;;;;;5405833;26;20236;-58
2024/04/23 08:27:48;;;;;;;7.23;6.57;;;;;;;;;;5433340;26;20667;-57
2024/04/23 08:30:14;;;;;;;6.33;5.83;;;;;;;;;;5427974;26;20240;-63
2024/04/23 08:32:45;;;;;;;7.30;6.60;;;;;;;;;;5421709;26;20233;-58
2024/04/23 08:35:12;;;;;;;6.27;5.73;;;;;;;;;;5434528;26;20278;-58
2024/04/23 08:37:42;;;;;;;7.70;6.07;;;;;;;;;;5405099;26;20233;-60
2024/04/23 08:40:08;;;;;;;5.87;5.47;;;;;;;;;;5404516;26;20278;-58
2024/04/23 08:42:39;;;;;;;7.33;6.77;;;;;;;;;;5406145;26;20271;-61
2024/04/23 08:45:06;;;;;;;5.73;5.33;;;;;;;;;;5412405;26;20276;-61
2024/04/23 08:47:36;;;;;;;6.73;6.20;;;;;;;;;;5432689;26;20340;-60
2024/04/23 08:50:05;;;;;;;5.90;5.50;;;;;;;;;;5440114;26;20240;-67
2024/04/23 08:52:34;;;;;;;4.93;4.63;;;;;;;;;;5440557;26;20237;-59
2024/04/23 08:55:01;;;;;;;6.27;5.80;;;;;;;;;;5440870;26;20232;-58
2024/04/23 08:57:30;;;;;;;5.10;4.70;;;;;;;;;;5440450;26;20244;-59
2024/04/23 08:59:56;;;;;;;6.17;5.57;;;;;;;;;;5424044;26;20232;-58
2024/04/23 09:02:28;;;;;;;4.87;4.57;;;;;;;;;;5404584;26;20247;-60
2024/04/23 09:04:55;;;;;;;4.77;4.30;;;;;;;;;;5436767;26;20240;-61
2024/04/23 09:07:28;;;;;;;5.40;5.10;;;;;;;;;;5440369;26;20335;-60
2024/04/23 09:09:54;;;;;;;4.90;4.60;;;;;;;;;;5439861;26;20236;-59
2024/04/23 09:12:23;;;;;;;5.00;4.50;;;;;;;;;;5438958;26;20655;-59
2024/04/23 09:14:49;;;;;;;3.70;3.50;;;;;;;;;;5440394;26;20625;-58
2024/04/23 09:17:22;;;;;;;4.03;3.83;;;;;;;;;;5413341;26;20237;-58
2024/04/23 09:19:48;;;;;;;4.27;3.97;;;;;;;;;;5406210;26;20233;-59
2024/04/23 09:22:17;;;;;;;5.20;3.90;;;;;;;;;;5440075;26;20690;-56
2024/04/23 09:24:46;;;;;;;3.80;3.60;;;;;;;;;;5440152;26;20227;-60
2024/04/23 09:27:15;;;;;;;3.60;3.40;;;;;;;;;;5440110;26;20268;-59
2024/04/23 09:29:41;;;;;;;4.33;4.10;;;;;;;;;;5403816;26;20275;-58
2024/04/23 09:32:10;;;;;;;4.07;3.87;;;;;;;;;;5404403;26;20659;-58
2024/04/23 09:34:36;;;;;;;4.77;4.47;;;;;;;;;;5430684;26;20267;-58
2024/04/23 09:37:18;;;;;;;4.10;3.87;;;;;;;;;;5410594;26;20232;-59
2024/04/23 09:39:47;;;;;;;4.00;3.70;;;;;;;;;;5439210;26;20614;-59
2024/04/23 09:42:23;;;;;;;3.37;3.20;;;;;;;;;;5439872;26;20275;-58
2024/04/23 09:44:50;;;;;;;3.70;3.40;;;;;;;;;;5439843;26;20278;-59
2024/04/23 09:47:19;;;;;;;4.17;3.60;;;;;;;;;;5439708;26;20801;-58
2024/04/23 09:49:46;;;;;;;3.60;3.40;;;;;;;;;;5436585;26;20282;-60
2024/04/23 09:52:15;;;;;;;4.10;3.87;;;;;;;;;;5410626;26;20232;-60
2024/04/23 09:54:43;;;;;;;9.63;4.40;;;;;;;;;;5409789;26;20298;-58
2024/04/23 09:57:19;;;;;;;3.67;3.53;;;;;;;;;;5404031;26;20288;-58
2024/04/23 09:59:48;;;;;;;4.60;4.20;;;;;;;;;;5409268;26;20237;-59
2024/04/23 10:02:18;;;;;;;4.03;3.73;;;;;;;;;;5403754;26;20233;-58
2024/04/23 10:04:47;;;;;;;4.87;4.57;;;;;;;;;;5403802;26;20275;-58
2024/04/23 10:07:15;;;;;;;4.60;4.30;;;;;;;;;;5425538;26;20280;-56
2024/04/23 10:09:44;;;;;;;4.10;3.90;;;;;;;;;;5432419;26;20908;-57
2024/04/23 10:12:15;;;;;;;5.20;4.90;;;;;;;;;;5426556;26;20267;-60
2024/04/23 10:14:46;;;;;;;4.37;3.97;;;;;;;;;;5424541;26;20273;-58
2024/04/23 10:17:18;;;;;;;5.03;4.60;;;;;;;;;;5439257;26;20228;-61
2024/04/23 10:19:48;;;;;;;4.37;4.07;;;;;;;;;;5438662;26;20232;-58
2024/04/23 10:22:14;;;;;;;4.70;4.30;;;;;;;;;;5439150;26;20268;-58
2024/04/23 10:24:44;;;;;;;4.17;3.87;;;;;;;;;;5427350;26;20230;-58
2024/04/23 10:27:13;;;;;;;4.63;4.27;;;;;;;;;;5407173;26;20233;-58
2024/04/23 10:29:43;;;;;;;4.30;4.00;;;;;;;;;;5407803;26;20277;-58
2024/04/23 10:32:10;;;;;;;3.83;3.63;;;;;;;;;;5407124;26;20229;-58
2024/04/23 10:34:40;;;;;;;3.57;3.37;;;;;;;;;;5406814;26;20288;-58
2024/04/23 10:37:09;;;;;;;3.83;3.63;;;;;;;;;;5406639;26;20306;-58
2024/04/23 10:39:38;;;;;;;4.30;4.10;;;;;;;;;;5409309;26;20240;-58
2024/04/23 10:42:05;;;;;;;4.37;3.87;;;;;;;;;;5406882;26;20299;-58
2024/04/23 10:44:37;;;;;;;4.00;3.80;;;;;;;;;;5406717;26;20284;-58
2024/04/23 10:47:05;;;;;;;4.13;3.83;;;;;;;;;;5427737;26;20267;-58
2024/04/23 10:49:53;;;;;;;4.47;4.17;;;;;;;;;;5406834;26;20238;-56
2024/04/23 10:52:20;;;;;;;3.40;3.30;;;;;;;;;;5405557;26;20280;-59
2024/04/23 10:54:50;;;;;;;3.57;3.37;;;;;;;;;;5408475;26;21176;-59
2024/04/23 10:57:16;;;;;;;3.43;3.30;;;;;;;;;;5434471;26;20228;-58
2024/04/23 10:59:47;;;;;;;4.63;4.00;;;;;;;;;;5411646;26;20343;-58
2024/04/23 11:02:14;;;;;;;4.50;4.20;;;;;;;;;;5422597;26;20225;-59
2024/04/23 11:04:44;;;;;;;4.23;3.87;;;;;;;;;;5420251;26;20230;-59
2024/04/23 11:07:11;;;;;;;4.03;3.83;;;;;;;;;;5421560;26;20231;-59
2024/04/23 11:09:40;;;;;;;4.67;4.37;;;;;;;;;;5419246;26;20349;-59
2024/04/23 11:12:16;;;;;;;4.10;3.80;;;;;;;;;;5406612;26;20235;-59
2024/04/23 11:14:47;;;;;;;3.77;3.43;;;;;;;;;;5429208;26;20279;-59
2024/04/23 11:17:14;;;;;;;4.30;4.00;;;;;;;;;;5406474;26;20699;-59
2024/04/23 11:19:44;;;;;;;3.70;3.50;;;;;;;;;;5420613;26;20234;-59
2024/04/23 11:22:13;;;;;;;4.90;4.47;;;;;;;;;;5442222;26;20231;-59
2024/04/23 11:24:44;;;;;;;5.10;4.60;;;;;;;;;;5442148;26;20237;-59
2024/04/23 11:27:11;;;;;;;4.37;4.07;;;;;;;;;;5442272;26;20233;-59
2024/04/23 11:29:41;;;;;;;5.90;4.57;;;;;;;;;;5440581;26;20234;-59
2024/04/23 11:32:11;;;;;;;5.33;4.93;;;;;;;;;;5406145;26;20226;-59
2024/04/23 11:34:41;;;;;;;5.47;4.93;;;;;;;;;;5406200;26;20273;-59
2024/04/23 11:37:07;;;;;;;4.70;4.40;;;;;;;;;;5409443;26;20785;-58
2024/04/23 11:39:36;;;;;;;5.53;5.10;;;;;;;;;;5405457;26;20298;-59
2024/04/23 11:42:03;;;;;;;5.93;5.53;;;;;;;;;;5406143;26;20224;-59
2024/04/23 11:44:31;;;;;;;6.00;5.50;;;;;;;;;;5405926;26;20234;-59
2024/04/23 11:46:58;;;;;;;4.53;4.20;;;;;;;;;;5411413;26;20749;-59
2024/04/23 11:49:29;;;;;;;5.50;5.10;;;;;;;;;;5405392;26;20738;-59
2024/04/23 11:51:56;;;;;;;5.67;5.17;;;;;;;;;;5406051;26;20231;-59
2024/04/23 11:54:25;;;;;;;6.73;6.10;;;;;;;;;;5430823;26;20234;-59
2024/04/23 11:56:52;;;;;;;5.87;5.47;;;;;;;;;;5441805;26;20271;-59
2024/04/23 11:59:22;;;;;;;5.13;4.83;;;;;;;;;;5440855;26;20232;-59
2024/04/23 12:01:48;;;;;;;5.80;5.27;;;;;;;;;;5441835;26;20224;-59
2024/04/23 12:04:18;;;;;;;6.90;6.20;;;;;;;;;;5441183;26;20274;-59
2024/04/23 12:06:47;;;;;;;6.93;6.37;;;;;;;;;;5420057;26;20226;-59
2024/04/23 12:09:16;;;;;;;7.47;6.93;;;;;;;;;;5405193;26;20249;-59
2024/04/23 12:11:45;;;;;;;7.33;5.53;;;;;;;;;;5435976;26;20254;-59
2024/04/23 12:14:13;;;;;;;6.17;5.67;;;;;;;;;;5441486;26;20232;-59
2024/04/23 12:16:42;;;;;;;6.13;5.63;;;;;;;;;;5440367;26;20998;-59
2024/04/23 12:19:11;;;;;;;6.03;5.63;;;;;;;;;;5415645;26;20276;-59
2024/04/23 12:21:37;;;;;;;7.00;6.30;;;;;;;;;;5421835;26;20232;-59
2024/04/23 12:24:08;;;;;;;10.50;5.77;;;;;;;;;;5405688;26;20229;-59
2024/04/23 12:26:35;;;;;;;7.70;6.83;;;;;;;;;;5405539;26;20273;-59
2024/04/23 12:29:04;;;;;;;6.17;5.57;;;;;;;;;;5439617;26;20307;-59
2024/04/23 12:31:33;;;;;;;7.53;6.83;;;;;;;;;;5441256;26;20275;-59
2024/04/23 12:33:59;;;;;;;6.00;5.50;;;;;;;;;;5441261;26;20225;-59
2024/04/23 12:36:28;;;;;;;7.80;6.93;;;;;;;;;;5431802;26;20280;-59
2024/04/23 12:38:54;;;;;;;5.87;5.37;;;;;;;;;;5405058;26;20229;-59
2024/04/23 12:41:26;;;;;;;5.90;5.40;;;;;;;;;;5419472;26;20233;-59
2024/04/23 12:43:52;;;;;;;5.37;4.97;;;;;;;;;;5408689;26;20775;-59
2024/04/23 12:46:22;;;;;;;5.97;5.37;;;;;;;;;;5440918;26;20232;-59
2024/04/23 12:48:48;;;;;;;5.30;4.97;;;;;;;;;;5439381;26;21000;-59
2024/04/23 12:51:17;;;;;;;5.50;5.07;;;;;;;;;;5440224;26;20237;-58
2024/04/23 12:53:43;;;;;;;5.93;5.47;;;;;;;;;;5434075;26;20225;-59
2024/04/23 12:56:12;;;;;;;5.97;5.50;;;;;;;;;;5405096;26;20234;-59
2024/04/23 12:58:41;;;;;;;5.60;5.10;;;;;;;;;;5404850;26;20273;-59
2024/04/23 13:01:10;;;;;;;5.17;4.77;;;;;;;;;;5411323;26;20282;-58
2024/04/23 13:03:36;;;;;;;6.40;5.13;;;;;;;;;;5441094;26;20276;-59
2024/04/23 13:06:05;;;;;;;5.33;4.83;;;;;;;;;;5440839;26;20279;-59
2024/04/23 13:08:34;;;;;;;5.30;4.90;;;;;;;;;;5439377;26;20228;-59
2024/04/23 13:11:03;;;;;;;6.10;5.50;;;;;;;;;;5410525;26;20327;-59
2024/04/23 13:13:29;;;;;;;7.33;6.63;;;;;;;;;;5403436;26;20235;-59
2024/04/23 13:16:01;;;;;;;5.37;5.07;;;;;;;;;;5434391;26;20333;-59
2024/04/23 13:18:27;;;;;;;5.63;5.27;;;;;;;;;;5423878;26;20552;-59
2024/04/23 13:20:59;;;;;;;5.70;5.30;;;;;;;;;;5427968;26;20257;-59
2024/04/23 13:23:25;;;;;;;6.00;5.50;;;;;;;;;;5432642;26;20607;-58
2024/04/23 13:25:57;;;;;;;7.03;6.33;;;;;;;;;;5432920;26;20815;-59
2024/04/23 13:28:23;;;;;;;7.80;7.03;;;;;;;;;;5410901;26;20791;-59
2024/04/23 13:30:56;;;;;;;15.43;11.20;;;;;;;;;;5434114;26;20704;-59
2024/04/23 13:33:27;;;;;;;10.30;6.87;;;;;;;;;;5413439;26;20274;-59
2024/04/23 13:35:54;;;;;;;6.97;6.37;;;;;;;;;;5423196;26;20591;-59
2024/04/23 13:38:23;;;;;;;7.10;6.60;;;;;;;;;;5440110;26;20226;-59
2024/04/23 13:40:49;;;;;;;5.63;5.20;;;;;;;;;;5439477;26;20363;-59
2024/04/23 13:43:18;;;;;;;5.87;5.47;;;;;;;;;;5437129;26;20288;-59
2024/04/23 13:45:44;;;;;;;9.50;8.60;;;;;;;;;;5404157;26;20268;-59
2024/04/23 13:48:13;;;;;;;6.80;6.30;;;;;;;;;;5404278;26;20279;-59
2024/04/23 13:50:44;;;;;;;7.40;6.73;;;;;;;;;;5403393;26;20291;-59
2024/04/23 13:53:14;;;;;;;7.10;6.57;;;;;;;;;;5427222;26;20229;-59
2024/04/23 13:55:41;;;;;;;7.37;6.73;;;;;;;;;;5439801;26;20224;-59
2024/04/23 13:58:14;;;;;;;6.57;6.07;;;;;;;;;;5439753;26;20282;-59
2024/04/23 14:00:40;;;;;;;5.77;5.37;;;;;;;;;;5429133;26;20230;-59
2024/04/23 14:03:13;;;;;;;6.60;6.07;;;;;;;;;;5407654;26;20229;-59
2024/04/23 14:05:42;;;;;;;7.53;6.80;;;;;;;;;;5407555;26;20273;-59
2024/04/23 14:08:14;;;;;;;7.83;7.00;;;;;;;;;;5407471;26;20229;-59
2024/04/23 14:10:42;;;;;;;7.77;7.07;;;;;;;;;;5437116;26;20284;-59
2024/04/23 14:13:14;;;;;;;6.50;6.00;;;;;;;;;;5438508;26;20228;-59
2024/04/23 14:15:40;;;;;;;6.40;5.90;;;;;;;;;;5423410;26;20236;-59
2024/04/23 14:18:10;;;;;;;6.50;6.00;;;;;;;;;;5416786;26;20225;-59
2024/04/23 14:20:36;;;;;;;5.60;5.20;;;;;;;;;;5470858;21;20295;-59
2024/04/23 14:23:10;;;;;;;5.73;5.33;;;;;;;;;;5490398;26;20227;-60
2024/04/23 14:25:36;;;;;;;8.33;6.50;;;;;;;;;;5486168;26;20623;-59
2024/04/23 14:28:10;;;;;;;7.67;7.00;;;;;;;;;;5491719;26;20238;-60
2024/04/23 14:30:37;;;;;;;6.87;6.37;;;;;;;;;;5476718;26;20237;-59
2024/04/23 14:33:09;;;;;;;8.53;7.77;;;;;;;;;;5487710;26;20269;-59
2024/04/23 14:35:36;;;;;;;8.17;7.47;;;;;;;;;;5486913;26;20226;-60
2024/04/23 14:38:15;;;;;;;7.53;6.93;;;;;;;;;;5486407;26;20287;-60
2024/04/23 14:40:41;;;;;;;7.67;7.07;;;;;;;;;;5448965;26;20259;-57
2024/04/23 14:43:14;;;;;;;8.10;7.40;;;;;;;;;;5450596;26;20283;-58
2024/04/23 14:45:40;;;;;;;8.10;7.40;;;;;;;;;;5483944;26;20751;-58
2024/04/23 14:48:09;;;;;;;8.00;7.30;;;;;;;;;;5485768;26;20229;-58
2024/04/23 14:50:37;;;;;;;9.47;8.57;;;;;;;;;;5486312;26;20287;-58
2024/04/23 14:53:11;;;;;;;10.73;7.73;;;;;;;;;;5485952;26;20221;-60
2024/04/23 14:55:37;;;;;;;8.67;7.83;;;;;;;;;;5486725;26;20829;-60
2024/04/23 14:58:08;;;;;;;8.90;8.03;;;;;;;;;;5486662;26;20305;-60